createdAt,value
2023-03-21T00:01:04.938Z,1.20
2023-03-21T00:03:33.676Z,1.10
2023-03-21T00:06:06.760Z,1.23
2023-03-21T00:08:33.233Z,1.43
2023-03-21T00:11:02.639Z,1.03
2023-03-21T00:13:33.729Z,0.57
2023-03-21T00:16:13.868Z,1.33
2023-03-21T00:18:52.363Z,1.33
2023-03-21T00:21:43.957Z,0.97
2023-03-21T00:24:08.064Z,1.30
2023-03-21T00:26:35.754Z,0.97
2023-03-21T00:29:02.414Z,1.53
2023-03-21T00:31:29.014Z,1.13
2023-03-21T00:33:59.594Z,1.03
2023-03-21T00:36:26.747Z,1.30
2023-03-21T00:38:54.217Z,1.00
2023-03-21T00:41:35.226Z,1.40
2023-03-21T00:44:07.208Z,1.30
2023-03-21T00:46:44.030Z,1.40
2023-03-21T00:49:21.085Z,1.10
2023-03-21T00:51:51.231Z,1.00
2023-03-21T00:54:17.988Z,1.13
2023-03-21T00:56:44.447Z,1.63
2023-03-21T00:59:10.918Z,1.83
2023-03-21T01:01:39.944Z,0.83
2023-03-21T01:04:07.756Z,1.10
2023-03-21T01:06:40.562Z,1.50
2023-03-21T01:09:12.829Z,0.70
2023-03-21T01:11:42.344Z,0.90
2023-03-21T01:14:21.433Z,1.20
2023-03-21T01:16:50.320Z,1.30
2023-03-21T01:19:48.683Z,0.70
2023-03-21T01:22:06.041Z,0.70
2023-03-21T01:24:40.343Z,0.83
2023-03-21T01:27:10.142Z,1.00
2023-03-21T01:29:36.599Z,1.07
2023-03-21T01:32:03.087Z,0.90
2023-03-21T01:34:29.998Z,1.10
2023-03-21T01:36:58.689Z,1.10
2023-03-21T01:39:25.445Z,0.87
2023-03-21T01:41:51.915Z,0.90
2023-03-21T01:44:19.306Z,1.00
2023-03-21T01:47:03.629Z,1.93
2023-03-21T01:49:39.814Z,0.80
2023-03-21T01:52:15.301Z,1.00
2023-03-21T01:54:44.824Z,0.57
2023-03-21T01:57:17.029Z,0.80
2023-03-21T01:59:48.175Z,0.97
2023-03-21T02:02:20.863Z,1.20
2023-03-21T02:04:51.128Z,0.90
2023-03-21T02:07:25.714Z,0.83
2023-03-21T02:09:53.441Z,1.20
2023-03-21T02:12:22.708Z,0.73
2023-03-21T02:14:50.212Z,1.10
2023-03-21T02:17:52.184Z,1.00
2023-03-21T02:20:40.883Z,0.77
2023-03-21T02:23:35.281Z,0.70
2023-03-21T02:26:42.966Z,0.80
2023-03-21T02:29:25.177Z,0.67
2023-03-21T02:32:19.999Z,0.80
2023-03-21T02:35:20.052Z,0.60
2023-03-21T02:38:08.147Z,1.10
2023-03-21T02:40:43.306Z,1.17
2023-03-21T02:43:48.073Z,1.20
2023-03-21T02:46:40.175Z,0.93
2023-03-21T02:49:17.005Z,1.33
2023-03-21T02:51:48.338Z,0.63
2023-03-21T02:54:35.118Z,1.13
2023-03-21T02:57:11.565Z,1.10
2023-03-21T02:59:51.626Z,0.90
2023-03-21T03:02:24.998Z,1.37
2023-03-21T03:04:51.474Z,1.00
2023-03-21T03:07:41.664Z,1.57
2023-03-21T03:10:32.015Z,0.90
2023-03-21T03:13:17.177Z,1.03
2023-03-21T03:16:18.418Z,0.73
2023-03-21T03:18:57.284Z,0.70
2023-03-21T03:21:38.991Z,1.17
2023-03-21T03:24:13.852Z,1.33
2023-03-21T03:26:51.469Z,0.70
2023-03-21T03:29:20.846Z,1.07
2023-03-21T03:31:57.793Z,1.07
2023-03-21T03:34:29.546Z,1.63
2023-03-21T03:36:58.908Z,0.80
2023-03-21T03:39:35.868Z,1.40
2023-03-21T03:42:21.655Z,0.90
2023-03-21T03:44:54.133Z,0.70
2023-03-21T03:47:36.365Z,0.60
2023-03-21T03:50:13.755Z,1.40
2023-03-21T03:52:56.093Z,2.07
2023-03-21T03:55:27.279Z,1.20
2023-03-21T03:57:54.929Z,0.93
2023-03-21T04:00:21.593Z,1.20
2023-03-21T04:02:48.229Z,1.30
2023-03-21T04:05:15.325Z,1.37
2023-03-21T04:07:46.081Z,1.43
2023-03-21T04:10:12.532Z,1.10
2023-03-21T04:12:38.972Z,1.03
2023-03-21T04:15:10.714Z,0.70
2023-03-21T04:17:39.785Z,1.00
2023-03-21T04:20:13.956Z,1.60
2023-03-21T04:22:45.526Z,0.77
2023-03-21T04:25:18.975Z,1.50
2023-03-21T04:27:50.887Z,0.77
2023-03-21T04:30:17.359Z,0.87
2023-03-21T04:32:43.802Z,0.90
2023-03-21T04:35:11.431Z,1.17
2023-03-21T04:37:39.266Z,1.13
2023-03-21T04:40:11.955Z,1.23
2023-03-21T04:42:38.553Z,0.83
2023-03-21T04:45:05.621Z,1.10
2023-03-21T04:47:32.152Z,0.97
2023-03-21T04:49:58.606Z,0.77
2023-03-21T04:52:25.584Z,1.40
2023-03-21T04:54:52.191Z,0.93
2023-03-21T04:57:18.646Z,0.90
2023-03-21T04:59:45.983Z,0.80
2023-03-21T05:02:12.854Z,0.97
2023-03-21T05:04:39.975Z,1.13
2023-03-21T05:07:06.758Z,0.93
2023-03-21T05:09:37.760Z,1.10
2023-03-21T05:12:04.778Z,1.23
2023-03-21T05:14:31.351Z,1.40
2023-03-21T05:16:58.234Z,0.83
2023-03-21T05:19:38.513Z,1.27
2023-03-21T05:22:08.612Z,1.17
2023-03-21T05:24:39.190Z,0.70
2023-03-21T05:27:05.808Z,1.03
2023-03-21T05:29:38.457Z,0.77
2023-03-21T05:32:05.273Z,0.90
2023-03-21T05:34:32.142Z,1.00
2023-03-21T05:36:58.707Z,1.33
2023-03-21T05:39:25.233Z,1.17
2023-03-21T05:41:51.661Z,0.70
2023-03-21T05:44:25.425Z,1.23
2023-03-21T05:46:51.880Z,1.10
2023-03-21T05:49:18.414Z,0.77
2023-03-21T05:51:45.365Z,0.80
2023-03-21T05:54:16.629Z,1.00
2023-03-21T05:56:45.406Z,0.83
2023-03-21T05:59:11.883Z,0.80
2023-03-21T06:01:38.320Z,0.93
2023-03-21T06:04:04.883Z,1.10
2023-03-21T06:06:31.522Z,1.40
2023-03-21T06:08:57.981Z,1.17
2023-03-21T06:11:31.018Z,0.90
2023-03-21T06:13:57.558Z,1.33
2023-03-21T06:16:24.076Z,0.90
2023-03-21T06:18:50.620Z,0.80
2023-03-21T06:21:17.047Z,1.00
2023-03-21T06:23:45.580Z,0.83
2023-03-21T06:26:12.168Z,0.70
2023-03-21T06:28:38.940Z,0.97
2023-03-21T06:31:05.902Z,1.23
2023-03-21T06:33:32.418Z,1.07
2023-03-21T06:35:59.475Z,1.23
2023-03-21T06:38:26.142Z,1.23
2023-03-21T06:40:52.852Z,1.20
2023-03-21T06:43:19.510Z,0.70
2023-03-21T06:45:46.117Z,0.97
2023-03-21T06:48:12.654Z,1.40
2023-03-21T06:50:39.090Z,0.70
2023-03-21T06:53:06.329Z,1.00
2023-03-21T06:55:32.767Z,1.03
2023-03-21T06:57:59.526Z,0.80
2023-03-21T07:00:26.551Z,1.60
2023-03-21T07:02:53.896Z,0.97
2023-03-21T07:05:20.695Z,0.50
2023-03-21T07:07:47.186Z,0.80
2023-03-21T07:10:13.665Z,1.10
2023-03-21T07:12:40.250Z,0.90
2023-03-21T07:15:08.257Z,1.03
2023-03-21T07:17:34.703Z,0.90
2023-03-21T07:20:01.335Z,1.40
2023-03-21T07:22:27.820Z,0.70
2023-03-21T07:25:04.306Z,1.20
2023-03-21T07:27:31.513Z,1.10
2023-03-21T07:30:00.380Z,0.93
2023-03-21T07:32:30.011Z,0.80
2023-03-21T07:34:56.778Z,1.40
2023-03-21T07:37:24.052Z,1.07
2023-03-21T07:39:51.475Z,1.00
2023-03-21T07:42:18.349Z,1.30
2023-03-21T07:44:44.883Z,0.80
2023-03-21T07:47:11.402Z,1.00
2023-03-21T07:49:46.852Z,0.90
2023-03-21T07:52:13.325Z,1.00
2023-03-21T07:54:39.772Z,1.37
2023-03-21T07:57:07.199Z,0.93
2023-03-21T07:59:34.914Z,0.63
2023-03-21T08:02:01.437Z,0.80
2023-03-21T08:04:28.003Z,1.57
2023-03-21T08:06:58.989Z,0.87
2023-03-21T08:09:25.540Z,1.13
2023-03-21T08:11:52.016Z,0.90
2023-03-21T08:14:18.445Z,1.27
2023-03-21T08:16:45.073Z,0.83
2023-03-21T08:19:11.607Z,0.93
2023-03-21T08:21:43.385Z,0.70
2023-03-21T08:24:09.863Z,0.83
2023-03-21T08:26:36.413Z,0.70
2023-03-21T08:29:02.822Z,0.90
2023-03-21T08:31:29.346Z,0.57
2023-03-21T08:33:56.071Z,0.70
2023-03-21T08:36:31.564Z,0.60
2023-03-21T08:39:05.163Z,0.67
2023-03-21T08:41:33.004Z,1.00
2023-03-21T08:43:59.472Z,1.33
2023-03-21T08:46:29.253Z,0.90
2023-03-21T08:48:56.016Z,0.47
2023-03-21T08:51:22.563Z,0.50
2023-03-21T08:53:51.926Z,0.70
2023-03-21T08:56:18.504Z,1.00
2023-03-21T08:58:48.588Z,0.57
2023-03-21T09:01:15.960Z,1.45
2023-03-21T09:03:43.618Z,0.60
2023-03-21T09:06:14.232Z,1.02
2023-03-21T09:08:47.371Z,1.30
2023-03-21T09:11:16.822Z,0.97
2023-03-21T09:13:43.266Z,0.60
2023-03-21T09:16:10.029Z,1.95
2023-03-21T09:18:50.857Z,1.42
2023-03-21T09:21:18.505Z,1.60
2023-03-21T09:23:46.209Z,0.95
2023-03-21T09:26:13.775Z,0.52
2023-03-21T09:28:40.589Z,1.38
2023-03-21T09:31:12.048Z,1.80
2023-03-21T09:33:40.726Z,0.88
2023-03-21T09:36:12.872Z,0.90
2023-03-21T09:38:40.680Z,0.50
2023-03-21T09:41:32.167Z,1.67
2023-03-21T09:44:13.312Z,1.35
2023-03-21T09:46:49.715Z,0.95
2023-03-21T09:49:27.815Z,0.80
2023-03-21T09:51:58.554Z,0.80
2023-03-21T09:54:47.149Z,0.80
2023-03-21T09:57:29.791Z,0.75
2023-03-21T10:00:01.572Z,0.45
2023-03-21T10:02:45.623Z,0.70
2023-03-21T10:05:21.792Z,0.90
2023-03-21T10:07:59.015Z,1.05
2023-03-21T10:10:29.701Z,0.70
2023-03-21T10:12:57.193Z,1.10
2023-03-21T10:15:26.659Z,0.60
2023-03-21T10:18:00.303Z,0.32
2023-03-21T10:20:32.935Z,0.52
2023-03-21T10:23:05.598Z,0.68
2023-03-21T10:25:35.482Z,0.75
2023-03-21T10:28:04.424Z,0.63
2023-03-21T10:30:54.502Z,0.93
2023-03-21T10:33:26.374Z,0.70
2023-03-21T10:35:59.979Z,0.60
2023-03-21T10:38:27.225Z,0.43
2023-03-21T10:40:54.366Z,0.85
2023-03-21T10:43:46.295Z,1.27
2023-03-21T10:46:18.160Z,0.40
2023-03-21T10:48:48.217Z,0.50
2023-03-21T10:51:23.995Z,0.50
2023-03-21T10:54:06.544Z,0.50
2023-03-21T10:56:38.268Z,0.30
2023-03-21T10:59:06.730Z,0.30
2023-03-21T11:01:42.105Z,0.63
2023-03-21T11:04:16.066Z,0.85
2023-03-21T11:06:46.870Z,0.20
2023-03-21T11:09:20.287Z,0.40
2023-03-21T11:11:54.225Z,0.30
2023-03-21T11:14:34.222Z,0.60
2023-03-21T11:17:03.522Z,0.40
2023-03-21T11:19:36.502Z,0.50
2023-03-21T11:22:08.029Z,0.50
2023-03-21T11:24:44.906Z,0.30
2023-03-21T11:27:11.592Z,0.60
2023-03-21T11:30:00.564Z,0.65
2023-03-21T11:32:37.370Z,0.60
2023-03-21T11:35:16.921Z,0.38
2023-03-21T11:37:47.954Z,0.43
2023-03-21T11:40:31.436Z,0.57
2023-03-21T11:43:00.740Z,0.50
2023-03-21T11:45:36.037Z,0.63
2023-03-21T11:48:12.993Z,0.45
2023-03-21T11:50:47.681Z,0.40
2023-03-21T11:53:29.213Z,0.63
2023-03-21T11:56:04.053Z,0.57
2023-03-21T11:58:44.964Z,0.68
2023-03-21T12:01:13.099Z,0.40
2023-03-21T12:03:49.306Z,0.28
2023-03-21T12:06:41.686Z,0.43
2023-03-21T12:09:32.608Z,0.60
2023-03-21T12:12:39.997Z,1.40
2023-03-21T12:15:29.429Z,0.88
2023-03-21T12:18:11.509Z,0.30
2023-03-21T12:20:48.378Z,0.30
2023-03-21T12:23:45.346Z,0.30
2023-03-21T12:26:17.832Z,0.32
2023-03-21T12:29:16.650Z,0.40
2023-03-21T12:32:01.430Z,0.52
2023-03-21T12:34:55.579Z,0.60
2023-03-21T12:37:48.497Z,0.40
2023-03-21T12:40:33.948Z,0.70
2023-03-21T12:43:27.066Z,0.45
2023-03-21T12:45:59.911Z,1.00
2023-03-21T12:48:41.575Z,0.63
2023-03-21T12:51:33.967Z,0.60
2023-03-21T12:54:19.351Z,0.50
2023-03-21T12:57:02.333Z,0.90
2023-03-21T12:59:56.065Z,1.08
2023-03-21T13:02:41.629Z,0.90
2023-03-21T13:05:29.131Z,0.70
2023-03-21T13:08:04.719Z,0.50
2023-03-21T13:10:33.009Z,0.80
2023-03-21T13:13:16.965Z,1.10
2023-03-21T13:15:52.770Z,0.95
2023-03-21T13:18:31.645Z,0.77
2023-03-21T13:21:04.502Z,0.52
2023-03-21T13:23:37.012Z,1.10
2023-03-21T13:26:12.170Z,1.10
2023-03-21T13:28:40.934Z,0.95
2023-03-21T13:31:22.363Z,1.13
2023-03-21T13:33:51.119Z,0.80
2023-03-21T13:36:30.020Z,0.75
2023-03-21T13:39:04.382Z,0.77
2023-03-21T13:41:46.040Z,1.00
2023-03-21T13:44:50.160Z,1.10
2023-03-21T13:47:46.051Z,0.98
2023-03-21T13:50:18.341Z,1.00
2023-03-21T13:53:03.943Z,0.80
2023-03-21T13:55:38.294Z,0.73
2023-03-21T13:58:23.962Z,0.90
2023-03-21T14:01:15.512Z,0.85
2023-03-21T14:03:44.817Z,0.75
2023-03-21T14:06:11.919Z,1.98
2023-03-21T14:08:41.409Z,1.88
2023-03-21T14:11:16.294Z,0.82
2023-03-21T14:13:51.257Z,0.88
2023-03-21T14:16:19.217Z,1.10
2023-03-21T14:19:04.675Z,0.90
2023-03-21T14:21:34.104Z,0.77
2023-03-21T14:24:18.115Z,0.55
2023-03-21T14:26:48.954Z,0.88
2023-03-21T14:29:40.817Z,0.73
2023-03-21T14:32:07.868Z,1.00
2023-03-21T14:34:36.070Z,0.60
2023-03-21T14:37:06.726Z,0.77
2023-03-21T14:39:33.666Z,1.15
2023-03-21T14:42:06.357Z,0.70
2023-03-21T14:44:44.070Z,0.80
2023-03-21T14:47:26.053Z,1.13
2023-03-21T14:49:52.900Z,0.80
2023-03-21T14:52:27.878Z,1.83
2023-03-21T14:54:55.845Z,0.55
2023-03-21T14:57:27.687Z,0.68
2023-03-21T14:59:56.853Z,0.98
2023-03-21T15:02:31.638Z,0.80
2023-03-21T15:05:06.105Z,1.25
2023-03-21T15:07:35.099Z,0.73
2023-03-21T15:10:16.527Z,1.15
2023-03-21T15:13:01.494Z,1.17
2023-03-21T15:15:30.030Z,1.73
2023-03-21T15:18:02.970Z,1.20
2023-03-21T15:20:32.803Z,1.10
2023-03-21T15:23:07.559Z,1.08
2023-03-21T15:25:36.391Z,0.73
2023-03-21T15:28:04.874Z,1.15
2023-03-21T15:30:33.026Z,1.30
2023-03-21T15:33:07.815Z,0.82
2023-03-21T15:35:41.230Z,0.90
2023-03-21T15:38:29.994Z,0.80
2023-03-21T15:41:16.499Z,1.20
2023-03-21T15:43:46.150Z,1.00
2023-03-21T15:46:16.153Z,1.10
2023-03-21T15:48:43.280Z,1.07
2023-03-21T15:51:25.964Z,1.02
2023-03-21T15:53:54.176Z,1.10
2023-03-21T15:56:22.079Z,1.37
2023-03-21T15:58:53.114Z,1.10
2023-03-21T16:01:26.602Z,1.33
2023-03-21T16:03:58.481Z,0.97
2023-03-21T16:06:36.556Z,1.20
2023-03-21T16:09:09.108Z,1.10
2023-03-21T16:11:43.955Z,1.33
2023-03-21T16:14:20.139Z,1.57
2023-03-21T16:16:47.188Z,1.60
2023-03-21T16:19:14.219Z,1.20
2023-03-21T16:21:42.149Z,1.70
2023-03-21T16:24:11.627Z,1.77
2023-03-21T16:26:43.712Z,1.40
2023-03-21T16:29:13.323Z,1.90
2023-03-21T16:31:39.822Z,1.57
2023-03-21T16:34:07.195Z,1.77
2023-03-21T16:36:38.889Z,1.77
2023-03-21T16:39:17.296Z,1.60
2023-03-21T16:41:43.894Z,1.87
2023-03-21T16:44:10.991Z,2.27
2023-03-21T16:46:37.759Z,1.87
2023-03-21T16:49:07.490Z,1.63
2023-03-21T16:51:36.014Z,2.37
2023-03-21T16:54:02.755Z,1.97
2023-03-21T16:56:59.562Z,2.27
2023-03-21T16:59:25.990Z,1.67
2023-03-21T17:01:52.415Z,1.77
2023-03-21T17:04:19.000Z,1.77
2023-03-21T17:06:50.167Z,2.70
2023-03-21T17:09:22.764Z,2.50
2023-03-21T17:11:49.689Z,2.30
2023-03-21T17:14:17.993Z,2.00
2023-03-21T17:16:45.695Z,2.10
2023-03-21T17:19:20.401Z,1.80
2023-03-21T17:21:47.028Z,1.67
2023-03-21T17:24:13.775Z,1.77
2023-03-21T17:26:40.421Z,2.00
2023-03-21T17:29:17.481Z,1.77
2023-03-21T17:31:47.393Z,3.33
2023-03-21T17:34:14.658Z,2.97
2023-03-21T17:36:42.824Z,2.40
2023-03-21T17:39:16.958Z,2.00
2023-03-21T17:41:43.402Z,2.03
2023-03-21T17:44:09.907Z,2.20
2023-03-21T17:46:37.320Z,2.17
2023-03-21T17:49:04.856Z,2.23
2023-03-21T17:51:34.502Z,1.60
2023-03-21T17:54:01.616Z,2.10
2023-03-21T17:56:31.140Z,1.70
2023-03-21T17:58:59.642Z,1.60
2023-03-21T18:01:26.336Z,1.60
2023-03-21T18:03:55.028Z,1.47
2023-03-21T18:06:23.614Z,1.40
2023-03-21T18:08:52.903Z,0.93
2023-03-21T18:11:20.748Z,1.17
2023-03-21T18:13:48.447Z,2.03
2023-03-21T18:16:18.272Z,0.80
2023-03-21T18:18:46.503Z,1.20
2023-03-21T18:21:19.607Z,1.50
2023-03-21T18:23:47.394Z,0.73
2023-03-21T18:26:17.061Z,0.70
2023-03-21T18:28:45.390Z,0.67
2023-03-21T18:31:19.738Z,0.37
2023-03-21T18:33:48.854Z,0.50
2023-03-21T18:36:24.762Z,0.40
2023-03-21T18:38:54.090Z,0.43
2023-03-21T18:41:22.713Z,0.27
2023-03-21T18:44:11.787Z,0.57
2023-03-21T18:46:36.788Z,0.37
2023-03-21T18:49:30.362Z,1.00
2023-03-21T18:51:50.690Z,0.43
2023-03-21T18:54:17.201Z,0.57
2023-03-21T18:59:34.702Z,0.50
2023-03-21T19:02:02.076Z,0.40
2023-03-21T19:04:30.322Z,0.50
2023-03-21T19:07:11.474Z,0.43
2023-03-21T19:12:25.994Z,0.60
2023-03-21T19:14:52.451Z,0.40
2023-03-21T19:20:06.023Z,0.40
2023-03-21T19:22:32.503Z,0.80
2023-03-21T19:24:58.971Z,0.70
2023-03-21T19:27:25.821Z,0.50
2023-03-21T19:30:08.278Z,0.70
2023-03-21T19:32:39.150Z,0.83
2023-03-21T19:35:13.347Z,0.73
2023-03-21T19:37:39.835Z,0.77
2023-03-21T19:40:07.265Z,0.80
2023-03-21T19:42:36.265Z,0.80
2023-03-21T19:45:04.810Z,1.00
2023-03-21T19:47:31.314Z,0.80
2023-03-21T19:52:44.225Z,1.20
2023-03-21T19:55:10.943Z,0.90
2023-03-21T19:57:37.377Z,1.17
2023-03-21T20:00:04.773Z,0.90
2023-03-21T20:02:36.640Z,0.70
2023-03-21T20:05:07.897Z,0.90
2023-03-21T20:07:34.903Z,0.90
2023-03-21T20:10:01.458Z,0.67
2023-03-21T20:12:28.692Z,0.60
2023-03-21T20:15:07.251Z,0.40
2023-03-21T20:17:42.488Z,1.37
2023-03-21T20:20:10.283Z,0.67
2023-03-21T20:23:05.105Z,0.60
2023-03-21T20:25:24.335Z,0.70
2023-03-21T20:28:11.044Z,0.63
2023-03-21T20:30:48.471Z,0.50
2023-03-21T20:33:15.067Z,0.60
2023-03-21T20:38:34.417Z,0.50
2023-03-21T20:41:02.922Z,0.90
2023-03-21T20:46:18.970Z,1.10
2023-03-21T20:48:48.856Z,0.53
2023-03-21T20:52:27.451Z,0.70
2023-03-21T20:54:02.378Z,0.73
2023-03-21T20:56:30.428Z,0.70
2023-03-21T20:59:12.493Z,0.70
2023-03-21T21:01:43.161Z,0.70
2023-03-21T21:04:15.040Z,0.50
2023-03-21T21:06:41.695Z,0.60
2023-03-21T21:09:09.362Z,0.80
2023-03-21T21:14:22.362Z,0.60
2023-03-21T21:16:51.657Z,0.40
2023-03-21T21:19:18.895Z,0.90
2023-03-21T21:21:46.069Z,0.40
2023-03-21T21:24:14.521Z,0.50
2023-03-21T21:26:46.147Z,0.73
2023-03-21T21:29:17.061Z,0.30
2023-03-21T21:31:47.379Z,0.50
2023-03-21T21:34:16.193Z,0.50
2023-03-21T21:36:44.947Z,0.33
2023-03-21T21:39:18.551Z,0.30
2023-03-21T21:41:47.363Z,0.60
2023-03-21T21:44:13.913Z,0.60
2023-03-21T21:46:40.653Z,0.37
2023-03-21T21:49:07.109Z,0.23
2023-03-21T21:51:34.616Z,0.30
2023-03-21T21:54:03.522Z,0.30
2023-03-21T21:56:32.079Z,0.33
2023-03-21T21:59:01.958Z,0.40
2023-03-21T22:01:34.774Z,0.60
2023-03-21T22:04:06.542Z,0.57
2023-03-21T22:06:36.890Z,0.60
2023-03-21T22:09:06.932Z,0.33
2023-03-21T22:11:33.634Z,0.60
2023-03-21T22:14:00.096Z,0.60
2023-03-21T22:16:26.550Z,0.60
2023-03-21T22:18:53.012Z,0.60
2023-03-21T22:21:25.955Z,1.10
2023-03-21T22:23:52.385Z,0.60
2023-03-21T22:26:18.820Z,0.60
2023-03-21T22:28:45.385Z,0.93
2023-03-21T22:31:16.415Z,0.73
2023-03-21T22:33:43.515Z,0.63
2023-03-21T22:36:10.847Z,0.50
2023-03-21T22:38:39.323Z,0.70
2023-03-21T22:41:06.336Z,0.50
2023-03-21T22:43:34.242Z,0.83
2023-03-21T22:46:05.456Z,0.43
2023-03-21T22:48:32.955Z,1.03
2023-03-21T22:51:02.735Z,0.57
2023-03-21T22:53:29.588Z,0.80
2023-03-21T22:55:56.073Z,0.60
2023-03-21T22:58:22.887Z,0.70
2023-03-21T23:00:49.463Z,0.40
2023-03-21T23:03:18.079Z,0.90
2023-03-21T23:05:45.295Z,0.70
2023-03-21T23:08:12.879Z,0.50
2023-03-21T23:10:43.336Z,0.50
2023-03-21T23:13:10.144Z,0.93
2023-03-21T23:15:38.501Z,1.43
2023-03-21T23:18:06.389Z,0.90
2023-03-21T23:20:33.009Z,1.37
2023-03-21T23:22:59.519Z,0.80
2023-03-21T23:25:26.032Z,0.80
2023-03-21T23:27:52.467Z,0.80
2023-03-21T23:30:19.033Z,0.67
2023-03-21T23:32:45.463Z,1.00
2023-03-21T23:35:12.041Z,0.80
2023-03-21T23:37:48.967Z,1.10
2023-03-21T23:40:15.959Z,1.10
2023-03-21T23:42:42.415Z,1.00
2023-03-21T23:45:09.210Z,1.43
2023-03-21T23:47:35.739Z,1.10
2023-03-21T23:50:02.272Z,1.67
2023-03-21T23:52:29.872Z,1.47
2023-03-21T23:54:56.511Z,1.27
2023-03-21T23:57:22.971Z,1.50
2023-03-21T23:59:49.470Z,1.13
